createdAt,value
2022-09-03T00:01:24.534Z,15.3
2022-09-03T00:03:27.905Z,15.4
2022-09-03T00:05:31.386Z,15.3
2022-09-03T00:07:37.950Z,15.3
2022-09-03T00:09:41.463Z,15.3
2022-09-03T00:11:44.935Z,15.1
2022-09-03T00:13:48.435Z,15.1
2022-09-03T00:15:51.956Z,15.1
2022-09-03T00:19:58.863Z,15
2022-09-03T00:24:14.063Z,14.9
2022-09-03T00:26:12.475Z,14.9
2022-09-03T00:30:19.458Z,14.7
2022-09-03T00:38:38.063Z,14.3
2022-09-03T00:40:41.580Z,14.3
2022-09-03T00:41:44.860Z,14.2
2022-09-03T00:43:48.374Z,14.2
2022-09-03T00:45:51.874Z,14.2
2022-09-03T00:54:09.037Z,13.9
2022-09-03T01:00:19.243Z,13.9
2022-09-03T01:02:22.850Z,13.9
2022-09-03T01:04:29.366Z,13.9
2022-09-03T01:06:32.913Z,13.9
2022-09-03T01:16:50.571Z,13.5
2022-09-03T01:18:57.201Z,13.5
2022-09-03T01:21:00.727Z,13.5
2022-09-03T01:23:04.260Z,13.4
2022-09-03T01:25:07.808Z,13.4
2022-09-03T01:27:11.358Z,13.3
2022-09-03T01:29:15.640Z,13.2
2022-09-03T01:31:18.485Z,13.2
2022-09-03T01:33:25.065Z,13.2
2022-09-03T01:35:28.620Z,13.1
2022-09-03T01:40:39.040Z,13.1
2022-09-03T01:42:42.553Z,13.1
2022-09-03T01:46:52.914Z,13.1
2022-09-03T01:48:56.501Z,13.1
2022-09-03T01:50:59.848Z,13
2022-09-03T01:53:03.409Z,13
2022-09-03T01:55:06.934Z,13
2022-09-03T01:57:26.417Z,13
2022-09-03T01:59:14.052Z,13
2022-09-03T02:01:20.736Z,12.8
2022-09-03T02:03:24.222Z,12.8
2022-09-03T02:05:27.787Z,12.7
2022-09-03T02:07:31.300Z,12.6
2022-09-03T02:09:34.881Z,12.6
2022-09-03T02:11:38.456Z,12.5
2022-09-03T02:13:42.005Z,12.5
2022-09-03T02:15:48.765Z,12.5
2022-09-03T02:17:52.197Z,12.5
2022-09-03T02:19:55.765Z,12.5
2022-09-03T02:21:59.302Z,12.5
2022-09-03T02:24:02.911Z,12.6
2022-09-03T02:26:06.458Z,12.5
2022-09-03T02:28:17.389Z,12.5
2022-09-03T02:30:16.639Z,12.5
2022-09-03T02:34:23.758Z,12.5
2022-09-03T02:45:48.031Z,12.4
2022-09-03T02:47:51.544Z,12.3
2022-09-03T02:51:58.612Z,12.2
2022-09-03T03:02:19.575Z,12
2022-09-03T03:04:23.074Z,12
2022-09-03T03:06:26.665Z,12
2022-09-03T03:08:30.254Z,12
2022-09-03T03:10:33.785Z,12
2022-09-03T03:12:40.425Z,11.9
2022-09-03T03:14:55.021Z,11.9
2022-09-03T03:16:47.636Z,11.9
2022-09-03T03:18:51.123Z,11.9
2022-09-03T03:20:54.689Z,11.8
2022-09-03T03:22:58.254Z,11.8
2022-09-03T03:25:01.828Z,11.7
2022-09-03T03:29:12.061Z,11.6
2022-09-03T03:35:49.228Z,11.5
2022-09-03T03:39:59.502Z,11.4
2022-09-03T03:42:03.033Z,11.4
2022-09-03T03:44:06.636Z,11.4
2022-09-03T03:46:10.228Z,11.4
2022-09-03T03:48:13.761Z,11.4
2022-09-03T03:50:17.364Z,11.4
2022-09-03T03:56:31.214Z,11.2
2022-09-03T04:00:38.377Z,11.1
2022-09-03T04:02:42.006Z,11.1
2022-09-03T04:06:49.153Z,11
2022-09-03T04:08:55.805Z,11
2022-09-03T04:10:59.384Z,11
2022-09-03T04:13:03.007Z,10.9
2022-09-03T04:17:10.168Z,10.9
2022-09-03T04:19:13.783Z,10.9
2022-09-03T04:21:17.394Z,10.9
2022-09-03T04:23:24.052Z,10.9
2022-09-03T04:25:27.634Z,10.8
2022-09-03T04:27:31.220Z,10.8
2022-09-03T04:30:38.216Z,10.8
2022-09-03T04:38:55.674Z,10.7
2022-09-03T04:40:59.258Z,10.7
2022-09-03T04:47:10.067Z,10.7
2022-09-03T04:49:13.673Z,10.7
2022-09-03T04:51:20.371Z,10.7
2022-09-03T04:53:23.977Z,10.7
2022-09-03T04:55:27.583Z,10.7
2022-09-03T04:57:31.196Z,10.7
2022-09-03T04:59:34.781Z,10.7
2022-09-03T05:01:38.470Z,10.7
2022-09-03T05:03:42.006Z,10.7
2022-09-03T05:05:52.400Z,10.7
2022-09-03T05:07:52.308Z,10.7
2022-09-03T05:09:55.894Z,10.7
2022-09-03T05:11:59.528Z,10.7
2022-09-03T05:14:03.118Z,10.6
2022-09-03T05:16:06.819Z,10.6
2022-09-03T05:27:31.172Z,10.9
2022-09-03T05:29:34.783Z,11
2022-09-03T05:31:38.459Z,11.1
2022-09-03T05:33:45.100Z,11.1
2022-09-03T05:35:48.691Z,11.1
2022-09-03T05:41:59.568Z,11.3
2022-09-03T05:44:03.129Z,11.3
2022-09-03T05:52:29.028Z,11.9
2022-09-03T05:58:31.444Z,12.5
2022-09-03T06:00:35.055Z,12.6
2022-09-03T06:02:41.824Z,12.8
2022-09-03T06:06:48.901Z,13.3
2022-09-03T06:08:52.484Z,13.6
2022-09-03T06:10:56.059Z,14.1
2022-09-03T06:12:59.635Z,14.5
2022-09-03T06:15:03.216Z,14.4
2022-09-03T06:17:09.873Z,14.8
2022-09-03T06:19:13.448Z,15.1
2022-09-03T06:21:17.099Z,15.3
2022-09-03T06:22:20.342Z,15.5
2022-09-03T06:24:27.891Z,15.8
2022-09-03T06:26:27.531Z,15.6
2022-09-03T06:28:31.055Z,15.5
2022-09-03T06:30:39.264Z,15.7
2022-09-03T06:32:42.756Z,15.6
2022-09-03T06:36:49.842Z,15.8
2022-09-03T06:38:53.409Z,16.2
2022-09-03T06:40:56.915Z,16.6
2022-09-03T06:43:00.465Z,17.3
2022-09-03T06:47:10.624Z,17.8
2022-09-03T06:49:14.155Z,17.2
2022-09-03T06:53:21.195Z,17.1
2022-09-03T06:55:24.718Z,17.6
2022-09-03T06:57:28.242Z,17.6
2022-09-03T06:59:34.842Z,17.7
2022-09-03T07:01:38.502Z,18
2022-09-03T07:03:41.832Z,18.1
2022-09-03T07:05:45.333Z,17.5
2022-09-03T07:07:48.842Z,17.3
2022-09-03T07:11:55.858Z,16.9
2022-09-03T07:16:06.023Z,16.8
2022-09-03T07:18:09.428Z,16.8
2022-09-03T07:20:31.390Z,16.9
2022-09-03T07:22:34.857Z,16.9
2022-09-03T07:24:38.312Z,17
2022-09-03T07:26:44.917Z,17.7
2022-09-03T07:28:48.380Z,17.9
2022-09-03T07:30:51.860Z,18
2022-09-03T07:32:55.325Z,18
2022-09-03T07:34:58.735Z,18
2022-09-03T07:37:02.191Z,18.1
2022-09-03T07:39:05.655Z,18.2
2022-09-03T07:41:12.113Z,18.2
2022-09-03T07:43:15.594Z,18.3
2022-09-03T07:45:19.065Z,18.2
2022-09-03T07:47:27.021Z,18.5
2022-09-03T07:49:25.970Z,19.1
2022-09-03T07:51:29.450Z,19.3
2022-09-03T07:53:32.909Z,19.3
2022-09-03T07:55:39.446Z,19.7
2022-09-03T07:57:42.873Z,19.8
2022-09-03T07:59:49.134Z,20.3
2022-09-03T08:01:49.800Z,21.1
2022-09-03T08:03:53.268Z,20.8
2022-09-03T08:05:56.654Z,20.5
2022-09-03T08:08:00.044Z,20.5
2022-09-03T08:12:09.973Z,20.3
2022-09-03T08:17:19.996Z,20.5
2022-09-03T08:21:26.690Z,20.7
2022-09-03T08:23:33.103Z,22
2022-09-03T08:25:36.409Z,22.2
2022-09-03T08:27:39.796Z,22
2022-09-03T08:29:43.076Z,21.8
2022-09-03T08:31:46.424Z,22.8
2022-09-03T08:33:49.680Z,23.2
2022-09-03T08:35:52.888Z,24
2022-09-03T08:37:59.184Z,23.3
2022-09-03T08:40:02.489Z,23.3
2022-09-03T08:42:05.686Z,24.4
2022-09-03T08:44:08.929Z,24.3
2022-09-03T08:46:12.194Z,25.4
2022-09-03T08:48:15.355Z,25.6
2022-09-03T08:52:24.704Z,25.2
2022-09-03T08:54:27.907Z,24.5
2022-09-03T08:56:31.100Z,23.6
2022-09-03T08:58:34.213Z,23.5
2022-09-03T09:00:37.362Z,23
2022-09-03T09:02:40.678Z,23.2
2022-09-03T09:04:43.661Z,23.3
2022-09-03T09:06:49.821Z,23.2
2022-09-03T09:10:56.123Z,23.6
2022-09-03T09:11:59.214Z,23.2
2022-09-03T09:14:02.347Z,23.2
2022-09-03T09:16:05.513Z,23.3
2022-09-03T09:20:14.765Z,23.6
2022-09-03T09:22:17.863Z,23.7
2022-09-03T09:24:21.030Z,23.5
2022-09-03T09:28:27.211Z,24.2
2022-09-03T09:30:30.334Z,24.4
2022-09-03T09:32:33.478Z,23.9
2022-09-03T09:34:39.617Z,24
2022-09-03T09:36:42.719Z,24.4
2022-09-03T09:38:45.857Z,24.2
2022-09-03T09:40:48.964Z,23.9
2022-09-03T09:42:52.085Z,23.9
2022-09-03T09:44:55.165Z,24.6
2022-09-03T09:46:58.308Z,24.8
2022-09-03T09:49:04.427Z,24.8
2022-09-03T09:51:07.542Z,24.9
2022-09-03T09:53:10.611Z,25.2
2022-09-03T09:55:13.709Z,25.4
2022-09-03T09:59:19.862Z,25.3
2022-09-03T10:05:32.156Z,25
2022-09-03T10:07:35.210Z,25.6
2022-09-03T10:10:41.314Z,25.3
2022-09-03T10:12:44.347Z,25.5
2022-09-03T10:16:53.540Z,25.4
2022-09-03T10:18:56.570Z,25.6
2022-09-03T10:20:59.602Z,26
2022-09-03T10:23:02.638Z,25.8
2022-09-03T10:29:11.754Z,26.4
2022-09-03T10:33:20.816Z,26.8
2022-09-03T10:39:29.920Z,26.1
2022-09-03T10:41:32.844Z,25.9
2022-09-03T10:45:41.967Z,26.5
2022-09-03T10:49:47.924Z,26.5
2022-09-03T10:51:50.908Z,26.6
2022-09-03T10:53:53.892Z,26.6
2022-09-03T10:55:56.874Z,26.8
2022-09-03T10:57:59.881Z,26.6
2022-09-03T11:00:06.064Z,26.7
2022-09-03T11:02:08.881Z,26.7
2022-09-03T11:04:11.840Z,26.8
2022-09-03T11:06:33.289Z,26.4
2022-09-03T11:10:39.167Z,26.5
2022-09-03T11:12:45.150Z,26.1
2022-09-03T11:14:48.081Z,26.4
2022-09-03T11:16:51.001Z,26.8
2022-09-03T11:18:53.882Z,26.9
2022-09-03T11:22:59.678Z,26.7
2022-09-03T11:25:02.551Z,27
2022-09-03T11:29:11.356Z,27.1
2022-09-03T11:31:14.279Z,27.1
2022-09-03T11:33:17.029Z,27.8
2022-09-03T11:35:19.844Z,27.6
2022-09-03T11:37:22.624Z,27.5
2022-09-03T11:39:25.499Z,27.5
2022-09-03T11:41:31.280Z,27.1
2022-09-03T11:47:39.456Z,27.6
2022-09-03T11:49:42.164Z,28.2
2022-09-03T11:51:44.862Z,28.5
2022-09-03T11:53:47.541Z,28.3
2022-09-03T11:55:53.907Z,28.5
2022-09-03T11:57:56.540Z,28.4
2022-09-03T11:59:59.188Z,28.1
2022-09-03T12:01:02.086Z,28.4
2022-09-03T12:03:04.708Z,28.7
2022-09-03T12:07:09.858Z,28.1
2022-09-03T12:13:20.673Z,28.7
2022-09-03T12:17:25.766Z,27.9
2022-09-03T12:19:28.271Z,27.8
2022-09-03T12:21:30.833Z,27.7
2022-09-03T12:23:36.454Z,27.8
2022-09-03T12:25:40.510Z,27.5
2022-09-03T12:27:42.970Z,27.7
2022-09-03T12:29:45.480Z,28
2022-09-03T12:33:50.529Z,27.7
2022-09-03T12:36:00.450Z,27.4
2022-09-03T12:38:08.425Z,27.6
2022-09-03T12:40:05.946Z,27.9
2022-09-03T12:42:03.654Z,27.8
2022-09-03T12:44:06.174Z,28
2022-09-03T12:46:10.457Z,28
2022-09-03T12:48:11.264Z,28.3
2022-09-03T12:50:13.703Z,28
2022-09-03T12:52:19.329Z,27.8
2022-09-03T12:56:25.868Z,28.4
2022-09-03T12:57:27.163Z,28.2
2022-09-03T12:59:29.672Z,27.9
2022-09-03T13:01:32.310Z,27.7
2022-09-03T13:03:34.708Z,27.8
2022-09-03T13:05:40.379Z,27.5
2022-09-03T13:07:44.696Z,27.6
2022-09-03T13:09:45.434Z,27.8
2022-09-03T13:11:48.058Z,27.9
2022-09-03T13:13:50.607Z,28
2022-09-03T13:16:45.113Z,28.5
2022-09-03T13:17:55.713Z,29.2
2022-09-03T13:20:01.438Z,29.6
2022-09-03T13:22:04.012Z,29.7
2022-09-03T13:30:14.322Z,27.7
2022-09-03T13:34:22.618Z,28.8
2022-09-03T13:36:25.230Z,28.8
2022-09-03T13:40:30.470Z,29.1
2022-09-03T13:42:33.106Z,28.6
2022-09-03T13:44:35.803Z,27.9
2022-09-03T13:46:38.450Z,28.8
2022-09-03T13:48:44.243Z,29.9
2022-09-03T13:50:46.895Z,30.4
2022-09-03T13:52:49.599Z,31.4
2022-09-03T13:53:52.490Z,31.2
2022-09-03T13:55:55.154Z,30.8
2022-09-03T13:58:01.685Z,30.7
2022-09-03T14:00:00.477Z,30.7
2022-09-03T14:02:06.278Z,31
2022-09-03T14:06:11.444Z,31
2022-09-03T14:12:19.234Z,32.4
2022-09-03T14:14:21.793Z,31.7
2022-09-03T14:16:27.471Z,30.3
2022-09-03T14:18:29.979Z,30
2022-09-03T14:20:32.503Z,30.4
2022-09-03T14:22:35.037Z,30.1
2022-09-03T14:24:37.564Z,29.5
2022-09-03T14:26:40.244Z,28.6
2022-09-03T14:28:42.628Z,28.1
2022-09-03T14:30:49.096Z,27.7
2022-09-03T14:32:51.619Z,27.6
2022-09-03T14:34:54.179Z,27.4
2022-09-03T14:36:56.930Z,27.1
2022-09-03T14:38:59.333Z,27.3
2022-09-03T14:41:01.975Z,27.2
2022-09-03T14:43:04.592Z,27.1
2022-09-03T14:45:10.359Z,27.3
2022-09-03T14:47:13.033Z,27.3
2022-09-03T14:49:15.736Z,27.4
2022-09-03T14:51:33.064Z,27.4
2022-09-03T14:53:35.821Z,27.4
2022-09-03T14:57:44.430Z,27.7
2022-09-03T14:59:47.230Z,27.5
2022-09-03T15:01:50.023Z,27.2
2022-09-03T15:05:55.634Z,27.7
2022-09-03T15:10:01.348Z,27.5
2022-09-03T15:12:07.243Z,27.6
2022-09-03T15:14:10.079Z,27.5
2022-09-03T15:16:13.008Z,27.5
2022-09-03T15:18:15.833Z,27.5
2022-09-03T15:20:18.677Z,27.5
2022-09-03T15:22:21.573Z,27.4
2022-09-03T15:24:24.455Z,27.4
2022-09-03T15:26:30.394Z,27.7
2022-09-03T15:28:34.377Z,27.6
2022-09-03T15:30:36.179Z,27.5
2022-09-03T15:32:39.077Z,27.2
2022-09-03T15:34:41.995Z,27.2
2022-09-03T15:36:44.872Z,27.1
2022-09-03T15:38:47.778Z,27
2022-09-03T15:40:53.749Z,27
2022-09-03T15:42:56.657Z,26.9
2022-09-03T15:46:02.663Z,26.7
2022-09-03T15:50:08.402Z,26.7
2022-09-03T15:52:11.331Z,26.9
2022-09-03T15:54:17.303Z,26.9
2022-09-03T15:56:20.234Z,26.9
2022-09-03T15:58:23.189Z,26.9
2022-09-03T16:00:26.157Z,27
2022-09-03T16:04:32.021Z,27.1
2022-09-03T16:06:34.981Z,27.6
2022-09-03T16:08:40.986Z,27.8
2022-09-03T16:10:43.904Z,27.5
2022-09-03T16:12:46.845Z,27.1
2022-09-03T16:14:49.802Z,27
2022-09-03T16:16:52.732Z,27
2022-09-03T16:18:55.683Z,27.1
2022-09-03T16:20:58.628Z,26.8
2022-09-03T16:25:07.580Z,26.8
2022-09-03T16:27:10.537Z,27
2022-09-03T16:29:13.459Z,26.9
2022-09-03T16:31:16.568Z,26.9
2022-09-03T16:33:19.353Z,26.8
2022-09-03T16:39:31.304Z,26.7
2022-09-03T16:41:34.188Z,26.6
2022-09-03T16:42:37.202Z,26.6
2022-09-03T16:53:27.589Z,26.5
2022-09-03T17:05:15.905Z,26.1
2022-09-03T17:09:21.851Z,26
2022-09-03T17:17:33.744Z,25.9
2022-09-03T17:19:39.787Z,25.8
2022-09-03T17:21:42.788Z,25.7
2022-09-03T17:23:45.802Z,25.7
2022-09-03T17:25:48.771Z,25.6
2022-09-03T17:27:51.779Z,25.5
2022-09-03T17:29:54.754Z,25.4
2022-09-03T17:31:57.760Z,25.4
2022-09-03T17:34:04.434Z,25.3
2022-09-03T17:36:07.375Z,25.2
2022-09-03T17:38:10.381Z,25.2
2022-09-03T17:39:13.446Z,25.1
2022-09-03T17:41:16.410Z,25.1
2022-09-03T17:43:19.536Z,25
2022-09-03T17:45:22.492Z,24.9
2022-09-03T17:47:28.551Z,24.7
2022-09-03T17:49:31.570Z,24.6
2022-09-03T17:51:34.632Z,24.5
2022-09-03T17:53:37.688Z,24.4
2022-09-03T17:55:40.713Z,24.2
2022-09-03T17:59:46.821Z,23.9
2022-09-03T18:03:56.068Z,23.5
2022-09-03T18:05:59.044Z,23.4
2022-09-03T18:08:02.190Z,23.2
2022-09-03T18:10:05.214Z,23
2022-09-03T18:12:08.279Z,22.9
2022-09-03T18:14:11.364Z,22.7
2022-09-03T18:16:17.650Z,22.4
2022-09-03T18:18:20.574Z,22.4
2022-09-03T18:20:25.228Z,22.2
2022-09-03T18:22:28.286Z,22.1
2022-09-03T18:24:31.379Z,22
2022-09-03T18:26:34.553Z,21.9
2022-09-03T18:28:37.635Z,21.8
2022-09-03T18:30:43.786Z,21.7
2022-09-03T18:32:46.915Z,21.6
2022-09-03T18:34:50.071Z,21.5
2022-09-03T18:37:08.117Z,21.4
2022-09-03T18:39:11.242Z,21.3
2022-09-03T18:41:14.371Z,21.3
2022-09-03T18:43:20.552Z,21.3
2022-09-03T18:45:23.710Z,21.3
2022-09-03T18:48:02.062Z,21.3
2022-09-03T18:49:30.015Z,21.1
2022-09-03T18:51:33.157Z,21.1
2022-09-03T18:53:36.304Z,21
2022-09-03T18:55:39.467Z,21
2022-09-03T18:57:45.663Z,20.9
2022-09-03T18:59:48.806Z,20.9
2022-09-03T19:01:52.077Z,20.9
2022-09-03T19:03:55.133Z,20.8
2022-09-03T19:05:58.297Z,20.7
2022-09-03T19:08:01.432Z,20.6
2022-09-03T19:10:04.581Z,20.5
2022-09-03T19:12:10.785Z,20.4
2022-09-03T19:14:13.941Z,20.4
2022-09-03T19:16:17.194Z,20.4
2022-09-03T19:18:20.255Z,20.3
2022-09-03T19:20:23.459Z,20.2
2022-09-03T19:22:26.608Z,20.2
2022-09-03T19:24:31.018Z,20.1
2022-09-03T19:26:35.986Z,20.1
2022-09-03T19:28:39.146Z,20.1
2022-09-03T19:30:42.353Z,20
2022-09-03T19:35:51.761Z,19.9
2022-09-03T19:44:07.594Z,19.5
2022-09-03T19:50:17.345Z,19.2
2022-09-03T19:52:20.393Z,19.2
2022-09-03T19:58:43.276Z,19.3
2022-09-03T20:02:39.616Z,19.3
2022-09-03T20:04:42.772Z,19.3
2022-09-03T20:06:45.992Z,19.3
2022-09-03T20:08:52.255Z,19.2
2022-09-03T20:10:55.479Z,19.2
2022-09-03T20:12:58.713Z,19.2
2022-09-03T20:15:01.952Z,19.1
2022-09-03T20:17:05.221Z,18.9
2022-09-03T20:19:08.428Z,18.8
2022-09-03T20:21:11.683Z,18.8
2022-09-03T20:23:17.943Z,18.7
2022-09-03T20:25:21.228Z,18.6
2022-09-03T20:28:27.688Z,18.6
2022-09-03T20:30:30.947Z,18.6
2022-09-03T20:32:34.202Z,18.5
2022-09-03T20:34:37.578Z,18.5
2022-09-03T20:36:44.074Z,18.5
2022-09-03T20:38:47.426Z,18.4
2022-09-03T20:40:50.798Z,18.3
2022-09-03T20:42:54.065Z,18.2
2022-09-03T20:44:57.464Z,18.1
2022-09-03T20:47:00.942Z,18
2022-09-03T20:49:04.116Z,18.1
2022-09-03T20:51:12.431Z,17.9
2022-09-03T20:53:13.787Z,17.9
2022-09-03T20:55:17.135Z,18
2022-09-03T20:57:20.486Z,18
2022-09-03T20:59:23.891Z,18
2022-09-03T21:01:27.334Z,18
2022-09-03T21:03:30.667Z,17.9
2022-09-03T21:07:40.531Z,17.8
2022-09-03T21:09:43.863Z,17.8
2022-09-03T21:11:47.306Z,17.8
2022-09-03T21:13:50.671Z,17.7
2022-09-03T21:15:56.603Z,17.7
2022-09-03T21:17:57.508Z,17.6
2022-09-03T21:20:04.060Z,17.6
2022-09-03T21:22:07.457Z,17.6
2022-09-03T21:24:10.898Z,17.6
2022-09-03T21:25:14.174Z,17.6
2022-09-03T21:27:17.609Z,17.6
2022-09-03T21:29:22.245Z,17.5
2022-09-03T21:37:37.703Z,17.5
2022-09-03T21:43:48.024Z,17.3
2022-09-03T21:47:57.986Z,17.2
2022-09-03T21:54:08.317Z,17.1
2022-09-03T21:56:13.476Z,17.1
2022-09-03T21:58:15.146Z,17.1
2022-09-03T22:04:28.585Z,17.1
2022-09-03T22:10:38.916Z,17
2022-09-03T22:12:42.354Z,16.9
2022-09-03T22:14:45.777Z,16.9
2022-09-03T22:16:52.385Z,16.8
2022-09-03T22:18:55.779Z,16.8
2022-09-03T22:20:59.230Z,16.8
2022-09-03T22:23:23.037Z,16.7
2022-09-03T22:27:29.918Z,16.7
2022-09-03T22:31:39.909Z,16.8
2022-09-03T22:37:50.260Z,16.7
2022-09-03T22:41:57.209Z,16.7
2022-09-03T22:52:17.633Z,16.6
2022-09-03T22:54:21.094Z,16.6
2022-09-03T22:58:31.167Z,16.5
2022-09-03T23:00:34.616Z,16.5
2022-09-03T23:04:41.543Z,16.5
2022-09-03T23:06:45.020Z,16.5
2022-09-03T23:08:48.536Z,16.5
2022-09-03T23:12:58.524Z,16.4
2022-09-03T23:15:02.836Z,16.4
2022-09-03T23:17:05.414Z,16.4
2022-09-03T23:18:08.721Z,16.4
2022-09-03T23:20:12.211Z,16.4
2022-09-03T23:22:15.610Z,16.4
2022-09-03T23:28:29.081Z,16.2
2022-09-03T23:34:39.453Z,16.1
2022-09-03T23:37:05.635Z,16
2022-09-03T23:38:46.374Z,16
2022-09-03T23:40:52.916Z,15.9
2022-09-03T23:42:56.365Z,15.8
2022-09-03T23:47:03.279Z,15.9
2022-09-03T23:49:06.769Z,15.9
2022-09-03T23:51:04.245Z,15.8
2022-09-03T23:53:07.723Z,15.8
2022-09-03T23:57:17.714Z,15.7
